ADDS METAR Data INFO
IDs: Format: Raw Decoded Include TAF

Data at: 1717 UTC 23 Oct 2017

KHND 231656Z 36003KT 10SM CLR 23/M03 A3038 RMK AO2 SLP272 T02331028 $
KHND 231556Z 18003KT 10SM CLR 21/M02 A3036 RMK AO2 SLP268 T02111017 $
KHND 231456Z 18005KT 10SM CLR 16/M02 A3033 RMK AO2 SLP263 T01611017 53011 $
KHND 231356Z 16008KT 10SM CLR 13/M02 A3032 RMK AO2 SLP257 T01281017 $
KHND 231256Z AUTO 13004KT 10SM CLR 13/M02 A3031 RMK AO2 SLP251 T01331017 $
KHND 231156Z AUTO 09005KT 10SM CLR 17/M03 A3030 RMK AO2 SLP244 T01721028 10178 20139 51001 $
KHND 231056Z AUTO VRB03KT 10SM CLR 15/M02 A3030 RMK AO2 SLP245 T01501017 $
KHND 230956Z AUTO 17008KT 10SM CLR 14/M01 A3030 RMK AO2 SLP247 T01391011 $
KHND 230856Z AUTO 16009KT 10SM CLR 14/M02 A3030 RMK AO2 SLP246 T01441017 53004 $
KHND 230756Z AUTO 18006KT 10SM CLR 16/M03 A3029 RMK AO2 SLP242 T01561028 402720100 $
KHND 230656Z AUTO 20010KT 10SM CLR 16/M02 A3028 RMK AO2 SLP243 T01611022 $
KHND 230556Z AUTO 18006KT 10SM CLR 16/M01 A3028 RMK AO2 SLP243 T01611011 10272 20161 50003 $
KHND 230456Z AUTO 16008KT 10SM CLR 17/M01 A3028 RMK AO2 SLP245 T01721006 $
KHND 230356Z AUTO 20005KT 10SM CLR 18/M02 A3028 RMK AO2 SLP245 T01781017 $
KHND 230256Z 18005KT 10SM CLR 19/M01 A3027 RMK AO2 SLP243 T01891011 53007 $
KHND 230156Z 11003KT 10SM CLR 21/01 A3026 RMK AO2 SLP241 T02110011 $
KHND 230056Z 00000KT 10SM CLR 25/M02 A3025 RMK AO2 SLP234 T02501017 $
KHND 222356Z 00000KT 10SM CLR 27/M02 A3025 RMK AO2 SLP231 T02671017 10272 20211 56016 $
KHND 222256Z 00000KT 10SM CLR 27/M02 A3027 RMK AO2 SLP236 T02671017 $
KHND 222156Z 05003KT 10SM CLR 26/M01 A3028 RMK AO2 SLP243 T02561011 $
KHND 222056Z VRB04KT 10SM CLR 26/M03 A3030 RMK AO2 SLP249 T02561033 58015 $
KHND 221956Z VRB03KT 10SM CLR 24/M05 A3032 RMK AO2 SLP258 T02391050 $
KHND 221856Z 00000KT 10SM CLR 23/M07 A3034 RMK AO2 SLP265 T02281067 $
KHND 221756Z VRB03KT 10SM CLR 22/M07 A3035 RMK AO2 SLP267 T02171067 10217 20100 50003 $
KHND 221656Z VRB03KT 10SM CLR 19/M07 A3036 RMK AO2 SLP271 T01941067 $
KHND 221556Z 00000KT 10SM CLR 18/M05 A3036 RMK AO2 SLP273 T01781050 $
KHND 221456Z 17004KT 10SM CLR 13/M07 A3034 RMK AO2 SLP268 T01281067 53016 $
KHND 221356Z 18007KT 10SM CLR 10/M08 A3031 RMK AO2 SLP259 T01001083 $
KHND 221256Z 15007KT 10SM CLR 11/M07 A3030 RMK AO2 SLP254 T01061067 $
KHND 221156Z AUTO 15006KT 10SM CLR 11/M08 A3029 RMK AO2 SLP248 T01111078 10133 20106 55002 $
KHND 221056Z AUTO 16008KT 10SM CLR 12/M09 A3027 RMK AO2 SLP243 T01171089 $
KHND 220956Z AUTO 19006KT 10SM CLR 11/M11 A3028 RMK AO2 SLP247 T01111106 $
KHND 220856Z AUTO 19007KT 10SM CLR 12/M09 A3029 RMK AO2 SLP251 T01171089 51008 $
KHND 220756Z AUTO 18007KT 10SM CLR 12/M11 A3029 RMK AO2 SLP250 T01171106 402110117 $
KHND 220656Z AUTO 12003KT 10SM CLR 12/M06 A3028 RMK AO2 SLP246 T01221056 $
KHND 220556Z AUTO 18006KT 10SM CLR 13/M07 A3027 RMK AO2 SLP243 T01331072 10211 20128 53015 $